sensor_id;sensor_type;location;lat;lon;timestamp;temperature;humidity
18998;DHT22;9632;51.018;4.284;2022-11-30T00:02:22;8.80;99.90
18998;DHT22;9632;51.018;4.284;2022-11-30T00:04:48;8.80;99.90
18998;DHT22;9632;51.018;4.284;2022-11-30T00:07:14;8.90;99.90
18998;DHT22;9632;51.018;4.284;2022-11-30T00:09:40;8.80;99.90
18998;DHT22;9632;51.018;4.284;2022-11-30T00:12:06;8.70;99.90
18998;DHT22;9632;51.018;4.284;2022-11-30T00:14:31;8.80;99.90
18998;DHT22;9632;51.018;4.284;2022-11-30T00:16:57;8.80;99.90
18998;DHT22;9632;51.018;4.284;2022-11-30T00:19:23;8.80;99.90
18998;DHT22;9632;51.018;4.284;2022-11-30T00:21:48;8.80;99.90
18998;DHT22;9632;51.018;4.284;2022-11-30T00:24:14;8.70;99.90
18998;DHT22;9632;51.018;4.284;2022-11-30T00:26:40;8.70;99.90
18998;DHT22;9632;51.018;4.284;2022-11-30T00:29:05;8.70;99.90
18998;DHT22;9632;51.018;4.284;2022-11-30T00:31:31;8.70;99.90
18998;DHT22;9632;51.018;4.284;2022-11-30T00:33:56;8.60;99.90
18998;DHT22;9632;51.018;4.284;2022-11-30T00:36:22;8.60;99.90
18998;DHT22;9632;51.018;4.284;2022-11-30T00:38:49;8.60;99.90
18998;DHT22;9632;51.018;4.284;2022-11-30T00:41:16;8.70;99.90
18998;DHT22;9632;51.018;4.284;2022-11-30T00:43:42;8.70;99.90
18998;DHT22;9632;51.018;4.284;2022-11-30T00:46:08;8.70;99.90
18998;DHT22;9632;51.018;4.284;2022-11-30T00:48:34;8.70;99.90
18998;DHT22;9632;51.018;4.284;2022-11-30T00:51:00;8.70;99.90
18998;DHT22;9632;51.018;4.284;2022-11-30T00:53:26;8.70;99.90
18998;DHT22;9632;51.018;4.284;2022-11-30T00:55:52;8.60;99.90
18998;DHT22;9632;51.018;4.284;2022-11-30T00:58:17;8.60;99.90
18998;DHT22;9632;51.018;4.284;2022-11-30T01:00:44;8.60;99.90
18998;DHT22;9632;51.018;4.284;2022-11-30T01:03:10;8.70;99.90
18998;DHT22;9632;51.018;4.284;2022-11-30T01:05:36;8.60;99.90
18998;DHT22;9632;51.018;4.284;2022-11-30T01:08:05;8.60;99.90
18998;DHT22;9632;51.018;4.284;2022-11-30T01:10:31;8.60;99.90
18998;DHT22;9632;51.018;4.284;2022-11-30T01:12:57;8.60;99.90
18998;DHT22;9632;51.018;4.284;2022-11-30T01:15:23;8.60;99.90
18998;DHT22;9632;51.018;4.284;2022-11-30T01:17:49;8.60;99.90
18998;DHT22;9632;51.018;4.284;2022-11-30T01:20:14;8.60;99.90
18998;DHT22;9632;51.018;4.284;2022-11-30T01:22:40;8.60;99.90
18998;DHT22;9632;51.018;4.284;2022-11-30T01:25:06;8.60;99.90
18998;DHT22;9632;51.018;4.284;2022-11-30T01:27:32;8.50;99.90
18998;DHT22;9632;51.018;4.284;2022-11-30T01:29:57;8.60;99.90
18998;DHT22;9632;51.018;4.284;2022-11-30T01:32:23;8.60;99.90
18998;DHT22;9632;51.018;4.284;2022-11-30T01:34:48;8.60;99.90
18998;DHT22;9632;51.018;4.284;2022-11-30T01:37:14;8.60;99.90
18998;DHT22;9632;51.018;4.284;2022-11-30T01:39:40;8.60;99.90
18998;DHT22;9632;51.018;4.284;2022-11-30T01:42:15;8.60;99.90
18998;DHT22;9632;51.018;4.284;2022-11-30T01:44:58;8.60;99.90
18998;DHT22;9632;51.018;4.284;2022-11-30T01:47:34;8.60;99.90
18998;DHT22;9632;51.018;4.284;2022-11-30T01:50:29;8.60;99.90
18998;DHT22;9632;51.018;4.284;2022-11-30T01:52:56;8.50;99.90
18998;DHT22;9632;51.018;4.284;2022-11-30T01:55:28;8.60;99.90
18998;DHT22;9632;51.018;4.284;2022-11-30T01:58:05;8.60;99.90
18998;DHT22;9632;51.018;4.284;2022-11-30T02:00:31;8.50;99.90
18998;DHT22;9632;51.018;4.284;2022-11-30T02:05:40;8.60;99.90
18998;DHT22;9632;51.018;4.284;2022-11-30T02:08:08;8.60;99.90
18998;DHT22;9632;51.018;4.284;2022-11-30T02:10:41;8.60;99.90
18998;DHT22;9632;51.018;4.284;2022-11-30T02:19:35;8.60;99.90
18998;DHT22;9632;51.018;4.284;2022-11-30T02:22:09;8.60;99.90
18998;DHT22;9632;51.018;4.284;2022-11-30T02:30:08;8.50;99.90
18998;DHT22;9632;51.018;4.284;2022-11-30T02:32:40;8.50;99.90
18998;DHT22;9632;51.018;4.284;2022-11-30T02:35:08;8.50;99.90
18998;DHT22;9632;51.018;4.284;2022-11-30T02:37:35;8.50;99.90
18998;DHT22;9632;51.018;4.284;2022-11-30T02:40:08;8.50;99.90
18998;DHT22;9632;51.018;4.284;2022-11-30T02:42:34;8.50;99.90
18998;DHT22;9632;51.018;4.284;2022-11-30T02:44:59;8.50;99.90
18998;DHT22;9632;51.018;4.284;2022-11-30T02:52:34;8.50;99.90
18998;DHT22;9632;51.018;4.284;2022-11-30T02:55:06;8.50;99.90
18998;DHT22;9632;51.018;4.284;2022-11-30T02:57:33;8.50;99.90
18998;DHT22;9632;51.018;4.284;2022-11-30T03:00:02;8.50;99.90
18998;DHT22;9632;51.018;4.284;2022-11-30T03:02:28;8.50;99.90
18998;DHT22;9632;51.018;4.284;2022-11-30T03:04:54;8.50;99.90
18998;DHT22;9632;51.018;4.284;2022-11-30T03:07:19;8.40;99.90
18998;DHT22;9632;51.018;4.284;2022-11-30T03:09:45;8.50;99.90
18998;DHT22;9632;51.018;4.284;2022-11-30T03:12:11;8.40;99.90
18998;DHT22;9632;51.018;4.284;2022-11-30T03:14:36;8.40;99.90
18998;DHT22;9632;51.018;4.284;2022-11-30T03:17:02;8.40;99.90
18998;DHT22;9632;51.018;4.284;2022-11-30T03:19:27;8.40;99.90
18998;DHT22;9632;51.018;4.284;2022-11-30T03:21:53;8.40;99.90
18998;DHT22;9632;51.018;4.284;2022-11-30T03:24:19;8.40;99.90
18998;DHT22;9632;51.018;4.284;2022-11-30T03:26:44;8.40;99.90
18998;DHT22;9632;51.018;4.284;2022-11-30T03:29:10;8.40;99.90
18998;DHT22;9632;51.018;4.284;2022-11-30T03:31:36;8.40;99.90
18998;DHT22;9632;51.018;4.284;2022-11-30T03:34:01;8.40;99.90
18998;DHT22;9632;51.018;4.284;2022-11-30T03:36:27;8.50;99.90
18998;DHT22;9632;51.018;4.284;2022-11-30T03:38:53;8.40;99.90
18998;DHT22;9632;51.018;4.284;2022-11-30T03:41:18;8.50;99.90
18998;DHT22;9632;51.018;4.284;2022-11-30T03:43:45;8.50;99.90
18998;DHT22;9632;51.018;4.284;2022-11-30T03:46:12;8.50;99.90
18998;DHT22;9632;51.018;4.284;2022-11-30T03:48:38;8.50;99.90
18998;DHT22;9632;51.018;4.284;2022-11-30T03:51:05;8.50;99.90
18998;DHT22;9632;51.018;4.284;2022-11-30T03:53:32;8.50;99.90
18998;DHT22;9632;51.018;4.284;2022-11-30T03:56:01;8.50;99.90
18998;DHT22;9632;51.018;4.284;2022-11-30T03:58:27;8.40;99.90
18998;DHT22;9632;51.018;4.284;2022-11-30T04:01:10;8.40;99.90
18998;DHT22;9632;51.018;4.284;2022-11-30T04:03:37;8.40;99.90
18998;DHT22;9632;51.018;4.284;2022-11-30T04:06:04;8.40;99.90
18998;DHT22;9632;51.018;4.284;2022-11-30T04:08:30;8.40;99.90
18998;DHT22;9632;51.018;4.284;2022-11-30T04:10:58;8.40;99.90
18998;DHT22;9632;51.018;4.284;2022-11-30T04:13:24;8.40;99.90
18998;DHT22;9632;51.018;4.284;2022-11-30T04:15:52;8.40;99.90
18998;DHT22;9632;51.018;4.284;2022-11-30T04:18:18;8.40;99.90
18998;DHT22;9632;51.018;4.284;2022-11-30T04:20:44;8.40;99.90
18998;DHT22;9632;51.018;4.284;2022-11-30T04:23:11;8.40;99.90
18998;DHT22;9632;51.018;4.284;2022-11-30T04:25:38;8.50;99.90
18998;DHT22;9632;51.018;4.284;2022-11-30T04:28:04;8.40;99.90
18998;DHT22;9632;51.018;4.284;2022-11-30T04:30:30;8.40;99.90
18998;DHT22;9632;51.018;4.284;2022-11-30T04:32:56;8.40;99.90
18998;DHT22;9632;51.018;4.284;2022-11-30T04:35:22;8.40;99.90
18998;DHT22;9632;51.018;4.284;2022-11-30T04:37:48;8.40;99.90
18998;DHT22;9632;51.018;4.284;2022-11-30T04:40:13;8.40;99.90
18998;DHT22;9632;51.018;4.284;2022-11-30T04:42:39;8.40;99.90
18998;DHT22;9632;51.018;4.284;2022-11-30T04:45:06;8.40;99.90
18998;DHT22;9632;51.018;4.284;2022-11-30T04:47:32;8.40;99.90
18998;DHT22;9632;51.018;4.284;2022-11-30T04:49:58;8.40;99.90
18998;DHT22;9632;51.018;4.284;2022-11-30T04:52:24;8.40;99.90
18998;DHT22;9632;51.018;4.284;2022-11-30T04:54:49;8.40;99.90
18998;DHT22;9632;51.018;4.284;2022-11-30T04:57:16;8.40;99.90
18998;DHT22;9632;51.018;4.284;2022-11-30T04:59:42;8.40;99.90
18998;DHT22;9632;51.018;4.284;2022-11-30T05:02:07;8.50;99.90
18998;DHT22;9632;51.018;4.284;2022-11-30T05:04:33;8.40;99.90
18998;DHT22;9632;51.018;4.284;2022-11-30T05:06:58;8.40;99.90
18998;DHT22;9632;51.018;4.284;2022-11-30T05:09:24;8.40;99.90
18998;DHT22;9632;51.018;4.284;2022-11-30T05:11:50;8.40;99.90
18998;DHT22;9632;51.018;4.284;2022-11-30T05:14:15;8.40;99.90
18998;DHT22;9632;51.018;4.284;2022-11-30T05:16:41;8.40;99.90
18998;DHT22;9632;51.018;4.284;2022-11-30T05:19:07;8.40;99.90
18998;DHT22;9632;51.018;4.284;2022-11-30T05:21:32;8.40;99.90
18998;DHT22;9632;51.018;4.284;2022-11-30T05:23:58;8.40;99.90
18998;DHT22;9632;51.018;4.284;2022-11-30T05:26:24;8.40;99.90
18998;DHT22;9632;51.018;4.284;2022-11-30T05:28:49;8.40;99.90
18998;DHT22;9632;51.018;4.284;2022-11-30T05:31:15;8.40;99.90
18998;DHT22;9632;51.018;4.284;2022-11-30T05:33:41;8.40;99.90
18998;DHT22;9632;51.018;4.284;2022-11-30T05:36:07;8.30;99.90
18998;DHT22;9632;51.018;4.284;2022-11-30T05:38:33;8.30;99.90
18998;DHT22;9632;51.018;4.284;2022-11-30T05:41:01;8.40;99.90
18998;DHT22;9632;51.018;4.284;2022-11-30T05:43:27;8.40;99.90
18998;DHT22;9632;51.018;4.284;2022-11-30T05:46:01;8.40;99.90
18998;DHT22;9632;51.018;4.284;2022-11-30T05:48:27;8.40;99.90
18998;DHT22;9632;51.018;4.284;2022-11-30T05:50:53;8.40;99.90
18998;DHT22;9632;51.018;4.284;2022-11-30T05:53:18;8.30;99.90
18998;DHT22;9632;51.018;4.284;2022-11-30T05:55:44;8.30;99.90
18998;DHT22;9632;51.018;4.284;2022-11-30T05:58:10;8.20;99.90
18998;DHT22;9632;51.018;4.284;2022-11-30T06:00:36;8.20;99.90
18998;DHT22;9632;51.018;4.284;2022-11-30T06:03:01;8.20;99.90
18998;DHT22;9632;51.018;4.284;2022-11-30T06:05:27;8.20;99.90
18998;DHT22;9632;51.018;4.284;2022-11-30T06:07:53;8.20;99.90
18998;DHT22;9632;51.018;4.284;2022-11-30T06:10:19;8.20;99.90
18998;DHT22;9632;51.018;4.284;2022-11-30T06:12:45;8.20;99.90
18998;DHT22;9632;51.018;4.284;2022-11-30T06:15:11;8.20;99.90
18998;DHT22;9632;51.018;4.284;2022-11-30T06:17:36;8.20;99.90
18998;DHT22;9632;51.018;4.284;2022-11-30T06:20:06;8.20;99.90
18998;DHT22;9632;51.018;4.284;2022-11-30T06:22:32;8.20;99.90
18998;DHT22;9632;51.018;4.284;2022-11-30T06:24:58;8.30;99.90
18998;DHT22;9632;51.018;4.284;2022-11-30T06:27:23;8.30;99.90
18998;DHT22;9632;51.018;4.284;2022-11-30T06:29:49;8.30;99.90
18998;DHT22;9632;51.018;4.284;2022-11-30T06:32:15;8.30;99.90
18998;DHT22;9632;51.018;4.284;2022-11-30T06:34:40;8.30;99.90
18998;DHT22;9632;51.018;4.284;2022-11-30T06:37:06;8.40;99.90
18998;DHT22;9632;51.018;4.284;2022-11-30T06:39:31;8.30;99.90
18998;DHT22;9632;51.018;4.284;2022-11-30T06:41:57;8.30;99.90
18998;DHT22;9632;51.018;4.284;2022-11-30T06:44:23;8.30;99.90
18998;DHT22;9632;51.018;4.284;2022-11-30T06:46:48;8.20;99.90
18998;DHT22;9632;51.018;4.284;2022-11-30T06:49:14;8.30;99.90
18998;DHT22;9632;51.018;4.284;2022-11-30T06:51:40;8.30;99.90
18998;DHT22;9632;51.018;4.284;2022-11-30T06:54:06;8.30;99.90
18998;DHT22;9632;51.018;4.284;2022-11-30T06:56:31;8.30;99.90
18998;DHT22;9632;51.018;4.284;2022-11-30T06:58:57;8.20;99.90
18998;DHT22;9632;51.018;4.284;2022-11-30T07:01:23;8.20;99.90
18998;DHT22;9632;51.018;4.284;2022-11-30T07:03:48;8.20;99.90
18998;DHT22;9632;51.018;4.284;2022-11-30T07:06:14;8.20;99.90
18998;DHT22;9632;51.018;4.284;2022-11-30T07:08:41;8.20;99.90
18998;DHT22;9632;51.018;4.284;2022-11-30T07:11:08;8.10;99.90
18998;DHT22;9632;51.018;4.284;2022-11-30T07:13:34;8.10;99.90
18998;DHT22;9632;51.018;4.284;2022-11-30T07:16:07;8.10;99.90
18998;DHT22;9632;51.018;4.284;2022-11-30T07:18:33;8.00;99.90
18998;DHT22;9632;51.018;4.284;2022-11-30T07:21:00;8.00;99.90
18998;DHT22;9632;51.018;4.284;2022-11-30T07:23:26;8.00;99.90
18998;DHT22;9632;51.018;4.284;2022-11-30T07:26:11;8.00;99.90
18998;DHT22;9632;51.018;4.284;2022-11-30T07:28:39;8.00;99.90
18998;DHT22;9632;51.018;4.284;2022-11-30T07:33:42;8.00;99.90
18998;DHT22;9632;51.018;4.284;2022-11-30T07:36:08;8.00;99.90
18998;DHT22;9632;51.018;4.284;2022-11-30T07:38:34;8.00;99.90
18998;DHT22;9632;51.018;4.284;2022-11-30T07:40:59;8.00;99.90
18998;DHT22;9632;51.018;4.284;2022-11-30T07:43:26;8.00;99.90
18998;DHT22;9632;51.018;4.284;2022-11-30T07:45:53;8.00;99.90
18998;DHT22;9632;51.018;4.284;2022-11-30T07:48:20;8.00;99.90
18998;DHT22;9632;51.018;4.284;2022-11-30T07:50:47;8.00;99.90
18998;DHT22;9632;51.018;4.284;2022-11-30T07:53:12;8.10;99.90
18998;DHT22;9632;51.018;4.284;2022-11-30T07:55:38;8.10;99.90
18998;DHT22;9632;51.018;4.284;2022-11-30T07:58:04;8.10;99.90
18998;DHT22;9632;51.018;4.284;2022-11-30T08:00:29;8.10;99.90
18998;DHT22;9632;51.018;4.284;2022-11-30T08:02:55;8.00;99.90
18998;DHT22;9632;51.018;4.284;2022-11-30T08:05:20;8.10;99.90
18998;DHT22;9632;51.018;4.284;2022-11-30T08:07:52;8.10;99.90
18998;DHT22;9632;51.018;4.284;2022-11-30T08:10:19;8.10;99.90
18998;DHT22;9632;51.018;4.284;2022-11-30T08:12:45;8.10;99.90
18998;DHT22;9632;51.018;4.284;2022-11-30T08:15:11;8.10;99.90
18998;DHT22;9632;51.018;4.284;2022-11-30T08:17:37;8.10;99.90
18998;DHT22;9632;51.018;4.284;2022-11-30T08:20:03;8.10;99.90
18998;DHT22;9632;51.018;4.284;2022-11-30T08:22:29;8.10;99.90
18998;DHT22;9632;51.018;4.284;2022-11-30T08:24:54;8.20;99.90
18998;DHT22;9632;51.018;4.284;2022-11-30T08:27:20;8.20;99.90
18998;DHT22;9632;51.018;4.284;2022-11-30T08:29:45;8.20;99.90
18998;DHT22;9632;51.018;4.284;2022-11-30T08:32:11;8.20;99.90
18998;DHT22;9632;51.018;4.284;2022-11-30T08:34:37;8.20;99.90
18998;DHT22;9632;51.018;4.284;2022-11-30T08:37:03;8.20;99.90
18998;DHT22;9632;51.018;4.284;2022-11-30T08:39:28;8.20;99.90
18998;DHT22;9632;51.018;4.284;2022-11-30T08:41:56;8.20;99.90
18998;DHT22;9632;51.018;4.284;2022-11-30T08:44:22;8.20;99.90
18998;DHT22;9632;51.018;4.284;2022-11-30T08:46:47;8.20;99.90
18998;DHT22;9632;51.018;4.284;2022-11-30T08:49:13;8.20;99.90
18998;DHT22;9632;51.018;4.284;2022-11-30T08:51:39;8.30;99.90
18998;DHT22;9632;51.018;4.284;2022-11-30T08:54:04;8.30;99.90
18998;DHT22;9632;51.018;4.284;2022-11-30T08:56:30;8.30;99.90
18998;DHT22;9632;51.018;4.284;2022-11-30T08:58:56;8.30;99.90
18998;DHT22;9632;51.018;4.284;2022-11-30T09:01:23;8.30;99.90
18998;DHT22;9632;51.018;4.284;2022-11-30T09:03:51;8.30;99.90
18998;DHT22;9632;51.018;4.284;2022-11-30T09:06:23;8.30;99.90
18998;DHT22;9632;51.018;4.284;2022-11-30T09:08:50;8.30;99.90
18998;DHT22;9632;51.018;4.284;2022-11-30T09:11:32;8.30;99.90
18998;DHT22;9632;51.018;4.284;2022-11-30T09:14:00;8.30;99.90
18998;DHT22;9632;51.018;4.284;2022-11-30T09:16:27;8.40;99.90
18998;DHT22;9632;51.018;4.284;2022-11-30T09:18:53;8.40;99.90
18998;DHT22;9632;51.018;4.284;2022-11-30T09:21:21;8.30;99.90
18998;DHT22;9632;51.018;4.284;2022-11-30T09:23:47;8.30;99.90
18998;DHT22;9632;51.018;4.284;2022-11-30T09:26:16;8.30;99.90
18998;DHT22;9632;51.018;4.284;2022-11-30T09:28:46;8.30;99.90
18998;DHT22;9632;51.018;4.284;2022-11-30T09:31:13;8.30;99.90
18998;DHT22;9632;51.018;4.284;2022-11-30T09:33:39;8.40;99.90
18998;DHT22;9632;51.018;4.284;2022-11-30T09:36:06;8.40;99.90
18998;DHT22;9632;51.018;4.284;2022-11-30T09:38:33;8.40;99.90
18998;DHT22;9632;51.018;4.284;2022-11-30T09:46:52;8.40;99.90
18998;DHT22;9632;51.018;4.284;2022-11-30T09:49:27;8.40;99.90
18998;DHT22;9632;51.018;4.284;2022-11-30T09:51:55;8.40;99.90
18998;DHT22;9632;51.018;4.284;2022-11-30T09:54:35;8.40;99.90
18998;DHT22;9632;51.018;4.284;2022-11-30T09:57:26;8.50;99.90
18998;DHT22;9632;51.018;4.284;2022-11-30T09:59:56;8.60;99.90
18998;DHT22;9632;51.018;4.284;2022-11-30T10:02:32;8.70;99.90
18998;DHT22;9632;51.018;4.284;2022-11-30T10:05:02;8.80;99.90
18998;DHT22;9632;51.018;4.284;2022-11-30T10:10:24;8.80;99.90
18998;DHT22;9632;51.018;4.284;2022-11-30T10:13:05;8.70;99.90
18998;DHT22;9632;51.018;4.284;2022-11-30T10:15:50;8.70;99.90
18998;DHT22;9632;51.018;4.284;2022-11-30T10:24:20;8.60;99.90
18998;DHT22;9632;51.018;4.284;2022-11-30T10:26:57;8.50;99.90
18998;DHT22;9632;51.018;4.284;2022-11-30T10:29:32;8.60;99.90
18998;DHT22;9632;51.018;4.284;2022-11-30T10:32:10;8.60;99.90
18998;DHT22;9632;51.018;4.284;2022-11-30T10:34:36;8.60;99.90
18998;DHT22;9632;51.018;4.284;2022-11-30T10:37:12;8.70;99.90
18998;DHT22;9632;51.018;4.284;2022-11-30T10:42:15;8.70;99.90
18998;DHT22;9632;51.018;4.284;2022-11-30T10:44:56;8.70;99.90
18998;DHT22;9632;51.018;4.284;2022-11-30T10:47:27;8.80;99.90
18998;DHT22;9632;51.018;4.284;2022-11-30T10:49:55;8.80;99.90
18998;DHT22;9632;51.018;4.284;2022-11-30T10:52:26;8.80;99.90
18998;DHT22;9632;51.018;4.284;2022-11-30T10:54:56;8.80;99.90
18998;DHT22;9632;51.018;4.284;2022-11-30T10:57:24;8.80;99.90
18998;DHT22;9632;51.018;4.284;2022-11-30T10:59:53;8.80;99.90
18998;DHT22;9632;51.018;4.284;2022-11-30T11:05:25;8.90;99.90
18998;DHT22;9632;51.018;4.284;2022-11-30T11:08:02;8.90;99.90
18998;DHT22;9632;51.018;4.284;2022-11-30T11:10:41;8.90;99.90
18998;DHT22;9632;51.018;4.284;2022-11-30T11:13:16;8.90;99.90
18998;DHT22;9632;51.018;4.284;2022-11-30T11:15:58;8.90;99.90
18998;DHT22;9632;51.018;4.284;2022-11-30T11:18:33;8.80;99.90
18998;DHT22;9632;51.018;4.284;2022-11-30T11:21:15;8.90;99.90
18998;DHT22;9632;51.018;4.284;2022-11-30T11:23:42;8.90;99.90
18998;DHT22;9632;51.018;4.284;2022-11-30T11:26:20;9.00;99.90
18998;DHT22;9632;51.018;4.284;2022-11-30T11:28:49;8.90;99.90
18998;DHT22;9632;51.018;4.284;2022-11-30T11:31:18;8.90;99.90
18998;DHT22;9632;51.018;4.284;2022-11-30T11:33:52;9.00;99.90
18998;DHT22;9632;51.018;4.284;2022-11-30T11:36:27;9.10;99.90
18998;DHT22;9632;51.018;4.284;2022-11-30T11:38:53;9.10;99.90
18998;DHT22;9632;51.018;4.284;2022-11-30T11:41:30;9.20;99.90
18998;DHT22;9632;51.018;4.284;2022-11-30T11:46:34;9.20;99.90
18998;DHT22;9632;51.018;4.284;2022-11-30T11:49:05;9.20;99.90
18998;DHT22;9632;51.018;4.284;2022-11-30T11:51:38;9.20;99.90
18998;DHT22;9632;51.018;4.284;2022-11-30T11:54:34;9.30;99.90
18998;DHT22;9632;51.018;4.284;2022-11-30T11:57:01;9.30;99.90
18998;DHT22;9632;51.018;4.284;2022-11-30T11:59:53;9.30;99.90
18998;DHT22;9632;51.018;4.284;2022-11-30T12:02:45;9.30;99.90
18998;DHT22;9632;51.018;4.284;2022-11-30T12:05:39;9.30;99.90
18998;DHT22;9632;51.018;4.284;2022-11-30T12:08:35;9.30;99.90
18998;DHT22;9632;51.018;4.284;2022-11-30T12:11:20;9.30;99.90
18998;DHT22;9632;51.018;4.284;2022-11-30T12:13:47;9.40;99.90
18998;DHT22;9632;51.018;4.284;2022-11-30T12:27:37;9.50;99.90
18998;DHT22;9632;51.018;4.284;2022-11-30T12:30:24;9.60;99.90
18998;DHT22;9632;51.018;4.284;2022-11-30T12:35:46;9.60;99.90
18998;DHT22;9632;51.018;4.284;2022-11-30T12:47:12;9.80;99.90
18998;DHT22;9632;51.018;4.284;2022-11-30T12:50:15;9.80;99.90
18998;DHT22;9632;51.018;4.284;2022-11-30T13:03:44;9.80;99.90
18998;DHT22;9632;51.018;4.284;2022-11-30T13:06:15;9.80;99.90
18998;DHT22;9632;51.018;4.284;2022-11-30T13:08:57;9.90;99.90
18998;DHT22;9632;51.018;4.284;2022-11-30T13:11:31;9.90;99.90
18998;DHT22;9632;51.018;4.284;2022-11-30T13:14:58;10.00;99.90
18998;DHT22;9632;51.018;4.284;2022-11-30T13:17:25;9.90;99.90
18998;DHT22;9632;51.018;4.284;2022-11-30T13:27:45;9.80;99.90
18998;DHT22;9632;51.018;4.284;2022-11-30T13:31:02;9.80;99.90
18998;DHT22;9632;51.018;4.284;2022-11-30T13:33:44;9.80;99.90
18998;DHT22;9632;51.018;4.284;2022-11-30T13:36:30;9.80;99.90
18998;DHT22;9632;51.018;4.284;2022-11-30T13:39:23;9.80;99.90
18998;DHT22;9632;51.018;4.284;2022-11-30T13:44:37;9.90;99.90
18998;DHT22;9632;51.018;4.284;2022-11-30T13:47:15;9.90;99.90
18998;DHT22;9632;51.018;4.284;2022-11-30T13:49:42;9.90;99.90
18998;DHT22;9632;51.018;4.284;2022-11-30T13:52:12;9.90;99.90
18998;DHT22;9632;51.018;4.284;2022-11-30T13:54:48;9.90;99.90
18998;DHT22;9632;51.018;4.284;2022-11-30T14:00:00;9.90;99.90
18998;DHT22;9632;51.018;4.284;2022-11-30T14:10:27;10.00;99.90
18998;DHT22;9632;51.018;4.284;2022-11-30T14:23:06;10.10;99.90
18998;DHT22;9632;51.018;4.284;2022-11-30T14:25:34;10.10;99.90
18998;DHT22;9632;51.018;4.284;2022-11-30T14:28:02;10.10;99.90
18998;DHT22;9632;51.018;4.284;2022-11-30T14:30:31;10.00;99.90
18998;DHT22;9632;51.018;4.284;2022-11-30T14:33:05;10.00;99.90
18998;DHT22;9632;51.018;4.284;2022-11-30T14:35:36;10.10;99.90
18998;DHT22;9632;51.018;4.284;2022-11-30T14:38:23;10.10;99.90
18998;DHT22;9632;51.018;4.284;2022-11-30T14:40:51;10.10;99.90
18998;DHT22;9632;51.018;4.284;2022-11-30T14:43:17;10.10;99.90
18998;DHT22;9632;51.018;4.284;2022-11-30T14:45:59;10.10;99.90
18998;DHT22;9632;51.018;4.284;2022-11-30T14:48:25;10.10;99.90
18998;DHT22;9632;51.018;4.284;2022-11-30T14:50:53;10.10;99.90
18998;DHT22;9632;51.018;4.284;2022-11-30T14:56:42;10.10;99.90
18998;DHT22;9632;51.018;4.284;2022-11-30T15:01:41;10.10;99.90
18998;DHT22;9632;51.018;4.284;2022-11-30T15:04:13;10.20;99.90
18998;DHT22;9632;51.018;4.284;2022-11-30T15:06:40;10.10;99.90
18998;DHT22;9632;51.018;4.284;2022-11-30T15:09:14;10.10;99.90
18998;DHT22;9632;51.018;4.284;2022-11-30T15:11:46;10.10;99.90
18998;DHT22;9632;51.018;4.284;2022-11-30T15:14:12;10.10;99.90
18998;DHT22;9632;51.018;4.284;2022-11-30T15:16:52;10.10;99.90
18998;DHT22;9632;51.018;4.284;2022-11-30T15:19:30;10.10;99.90
18998;DHT22;9632;51.018;4.284;2022-11-30T15:21:57;10.10;99.90
18998;DHT22;9632;51.018;4.284;2022-11-30T15:24:24;10.10;99.90
18998;DHT22;9632;51.018;4.284;2022-11-30T15:27:03;10.10;99.90
18998;DHT22;9632;51.018;4.284;2022-11-30T15:29:33;10.10;99.90
18998;DHT22;9632;51.018;4.284;2022-11-30T15:32:03;10.10;99.90
18998;DHT22;9632;51.018;4.284;2022-11-30T15:34:42;10.10;99.90
18998;DHT22;9632;51.018;4.284;2022-11-30T15:37:08;10.00;99.90
18998;DHT22;9632;51.018;4.284;2022-11-30T15:39:35;10.00;99.90
18998;DHT22;9632;51.018;4.284;2022-11-30T15:42:03;10.00;99.90
18998;DHT22;9632;51.018;4.284;2022-11-30T15:44:40;10.00;99.90
18998;DHT22;9632;51.018;4.284;2022-11-30T15:47:26;10.00;99.90
18998;DHT22;9632;51.018;4.284;2022-11-30T15:49:55;10.00;99.90
18998;DHT22;9632;51.018;4.284;2022-11-30T15:52:29;10.00;99.90
18998;DHT22;9632;51.018;4.284;2022-11-30T15:54:57;10.00;99.90
18998;DHT22;9632;51.018;4.284;2022-11-30T15:57:55;10.00;99.90
18998;DHT22;9632;51.018;4.284;2022-11-30T16:00:22;10.00;99.90
18998;DHT22;9632;51.018;4.284;2022-11-30T16:02:48;9.90;99.90
18998;DHT22;9632;51.018;4.284;2022-11-30T16:07:53;9.90;99.90
18998;DHT22;9632;51.018;4.284;2022-11-30T16:10:33;9.90;99.90
18998;DHT22;9632;51.018;4.284;2022-11-30T16:13:00;9.90;99.90
18998;DHT22;9632;51.018;4.284;2022-11-30T16:15:33;9.80;99.90
18998;DHT22;9632;51.018;4.284;2022-11-30T16:18:18;9.80;99.90
18998;DHT22;9632;51.018;4.284;2022-11-30T16:20:49;9.80;99.90
18998;DHT22;9632;51.018;4.284;2022-11-30T16:23:16;9.80;99.90
18998;DHT22;9632;51.018;4.284;2022-11-30T16:25:43;9.70;99.90
18998;DHT22;9632;51.018;4.284;2022-11-30T16:28:10;9.70;99.90
18998;DHT22;9632;51.018;4.284;2022-11-30T16:30:36;9.70;99.90
18998;DHT22;9632;51.018;4.284;2022-11-30T16:33:02;9.70;99.90
18998;DHT22;9632;51.018;4.284;2022-11-30T16:38:10;9.70;99.90
18998;DHT22;9632;51.018;4.284;2022-11-30T16:40:36;9.70;99.90
18998;DHT22;9632;51.018;4.284;2022-11-30T16:43:02;9.70;99.90
18998;DHT22;9632;51.018;4.284;2022-11-30T16:45:34;9.60;99.90
18998;DHT22;9632;51.018;4.284;2022-11-30T16:48:00;9.60;99.90
18998;DHT22;9632;51.018;4.284;2022-11-30T16:50:26;9.60;99.90
18998;DHT22;9632;51.018;4.284;2022-11-30T16:52:52;9.60;99.90
18998;DHT22;9632;51.018;4.284;2022-11-30T16:55:22;9.60;99.90
18998;DHT22;9632;51.018;4.284;2022-11-30T16:57:48;9.60;99.90
18998;DHT22;9632;51.018;4.284;2022-11-30T17:00:17;9.60;99.90
18998;DHT22;9632;51.018;4.284;2022-11-30T17:03:17;9.60;99.90
18998;DHT22;9632;51.018;4.284;2022-11-30T17:05:44;9.50;99.90
18998;DHT22;9632;51.018;4.284;2022-11-30T17:08:10;9.60;99.90
18998;DHT22;9632;51.018;4.284;2022-11-30T17:10:37;9.60;99.90
18998;DHT22;9632;51.018;4.284;2022-11-30T17:13:03;9.60;99.90
18998;DHT22;9632;51.018;4.284;2022-11-30T17:15:29;9.60;99.90
18998;DHT22;9632;51.018;4.284;2022-11-30T17:17:54;9.60;99.90
18998;DHT22;9632;51.018;4.284;2022-11-30T17:20:24;9.50;99.90
18998;DHT22;9632;51.018;4.284;2022-11-30T17:22:51;9.50;99.90
18998;DHT22;9632;51.018;4.284;2022-11-30T17:25:19;9.60;99.90
18998;DHT22;9632;51.018;4.284;2022-11-30T17:27:46;9.50;99.90
18998;DHT22;9632;51.018;4.284;2022-11-30T17:30:13;9.50;99.90
18998;DHT22;9632;51.018;4.284;2022-11-30T17:32:39;9.50;99.90
18998;DHT22;9632;51.018;4.284;2022-11-30T17:35:05;9.60;99.90
18998;DHT22;9632;51.018;4.284;2022-11-30T17:37:32;9.50;99.90
18998;DHT22;9632;51.018;4.284;2022-11-30T17:39:58;9.60;99.90
18998;DHT22;9632;51.018;4.284;2022-11-30T17:42:24;9.50;99.90
18998;DHT22;9632;51.018;4.284;2022-11-30T17:44:50;9.50;99.90
18998;DHT22;9632;51.018;4.284;2022-11-30T17:47:15;9.50;99.90
18998;DHT22;9632;51.018;4.284;2022-11-30T17:49:41;9.50;99.90
18998;DHT22;9632;51.018;4.284;2022-11-30T17:52:07;9.50;99.90
18998;DHT22;9632;51.018;4.284;2022-11-30T17:54:33;9.50;99.90
18998;DHT22;9632;51.018;4.284;2022-11-30T17:56:59;9.50;99.90
18998;DHT22;9632;51.018;4.284;2022-11-30T17:59:24;9.60;99.90
18998;DHT22;9632;51.018;4.284;2022-11-30T18:01:50;9.50;99.90
18998;DHT22;9632;51.018;4.284;2022-11-30T18:04:16;9.50;99.90
18998;DHT22;9632;51.018;4.284;2022-11-30T18:06:41;9.50;99.90
18998;DHT22;9632;51.018;4.284;2022-11-30T18:09:07;9.50;99.90
18998;DHT22;9632;51.018;4.284;2022-11-30T18:11:33;9.50;99.90
18998;DHT22;9632;51.018;4.284;2022-11-30T18:14:00;9.40;99.90
18998;DHT22;9632;51.018;4.284;2022-11-30T18:16:30;9.40;99.90